Time;durP1;ratioP1;P1;durP2;ratioP2;P2;SDS_P1;SDS_P2;PMS_P1;PMS_P2;Temp;Humidity;BMP_temperature;BMP_pressure;BME280_temperature;BME280_humidity;BME280_pressure;Samples;Min_cycle;Max_cycle;Signal;HPM_P1;HPM_P2
2022/06/15 00:01:07;;;;;;;4.60;2.85;;;;;;;;;;5099509;28;20034;-73
2022/06/15 00:03:36;;;;;;;3.95;2.70;;;;;;;;;;5104769;28;20110;-70
2022/06/15 00:06:14;;;;;;;5.13;2.90;;;;;;;;;;5091870;27;20061;-73
2022/06/15 00:08:42;;;;;;;4.53;2.47;;;;;;;;;;5097719;28;20027;-70
2022/06/15 00:11:15;;;;;;;3.75;2.40;;;;;;;;;;5104940;28;20031;-71
2022/06/15 00:13:41;;;;;;;;;;;;;;;;;;5100422;28;20053;-72
2022/06/15 00:16:07;;;;;;;6.55;3.00;;;;;;;;;;5101300;28;19935;-69
2022/06/15 00:18:34;;;;;;;4.78;2.45;;;;;;;;;;5100256;27;20036;-75
2022/06/15 00:21:00;;;;;;;4.57;2.20;;;;;;;;;;5097425;28;20028;-75
2022/06/15 00:23:28;;;;;;;4.25;2.78;;;;;;;;;;5099059;28;20015;-69
2022/06/15 00:25:54;;;;;;;3.85;2.60;;;;;;;;;;5100805;28;20027;-73
2022/06/15 00:28:21;;;;;;;3.50;2.35;;;;;;;;;;5097060;28;20060;-74
2022/06/15 00:30:49;;;;;;;4.47;2.92;;;;;;;;;;5114797;27;20027;-74
2022/06/15 00:33:15;;;;;;;4.40;2.90;;;;;;;;;;5100506;28;20024;-73
2022/06/15 00:35:40;;;;;;;4.00;2.50;;;;;;;;;;5094423;28;20044;-74
2022/06/15 00:38:07;;;;;;;4.78;2.72;;;;;;;;;;5103079;28;20024;-72
2022/06/15 00:40:33;;;;;;;5.35;2.60;;;;;;;;;;5094772;28;20027;-72
2022/06/15 00:42:59;;;;;;;4.03;2.83;;;;;;;;;;5100206;28;20387;-72
2022/06/15 00:45:24;;;;;;;4.13;2.50;;;;;;;;;;5102003;28;20024;-73
2022/06/15 00:47:50;;;;;;;4.15;2.80;;;;;;;;;;5093139;28;20034;-75
2022/06/15 00:50:21;;;;;;;5.53;2.92;;;;;;;;;;5100089;28;20024;-74
2022/06/15 00:52:49;;;;;;;6.32;2.90;;;;;;;;;;5102966;28;20468;-72
2022/06/15 00:55:27;;;;;;;5.70;3.13;;;;;;;;;;5101714;28;20069;-73
2022/06/15 00:57:53;;;;;;;4.10;2.75;;;;;;;;;;5101494;28;20395;-69
2022/06/15 01:00:20;;;;;;;5.78;3.17;;;;;;;;;;5097131;28;20445;-72
2022/06/15 01:02:46;;;;;;;4.15;2.88;;;;;;;;;;5101902;28;20031;-74
2022/06/15 01:06:00;;;;;;;3.58;2.70;;;;;;;;;;5100599;28;20472;-73
2022/06/15 01:09:00;;;;;;;4.82;3.00;;;;;;;;;;5096050;28;20075;-75
2022/06/15 01:11:50;;;;;;;3.97;2.75;;;;;;;;;;5096595;28;20533;-74
2022/06/15 01:14:50;;;;;;;5.70;2.85;;;;;;;;;;5102631;28;20028;-73
2022/06/15 01:17:34;;;;;;;4.20;3.00;;;;;;;;;;5102028;27;20047;-73
2022/06/15 01:20:09;;;;;;;4.78;2.70;;;;;;;;;;5095601;28;20031;-70
2022/06/15 01:23:12;;;;;;;3.85;2.58;;;;;;;;;;5100034;28;20026;-70
2022/06/15 01:26:00;;;;;;;4.35;2.75;;;;;;;;;;5100719;27;20031;-72
2022/06/15 01:28:47;;;;;;;5.95;3.15;;;;;;;;;;5103462;28;20541;-74
2022/06/15 01:31:26;;;;;;;6.75;2.90;;;;;;;;;;5104360;27;20063;-74
2022/06/15 01:34:19;;;;;;;5.32;2.97;;;;;;;;;;5098489;27;20791;-74
2022/06/15 01:36:51;;;;;;;4.10;2.53;;;;;;;;;;5104137;28;20043;-72
2022/06/15 01:39:29;;;;;;;4.60;2.60;;;;;;;;;;5105992;27;20276;-75
2022/06/15 01:42:05;;;;;;;4.43;2.30;;;;;;;;;;5104502;27;20455;-73
2022/06/15 01:44:45;;;;;;;4.78;2.40;;;;;;;;;;5096900;27;20111;-71
2022/06/15 01:47:15;;;;;;;3.95;2.05;;;;;;;;;;5109359;28;20494;-69
2022/06/15 01:49:46;;;;;;;3.55;2.30;;;;;;;;;;5102668;27;20394;-69
2022/06/15 01:52:15;;;;;;;3.63;2.33;;;;;;;;;;5106789;27;20027;-74
2022/06/15 01:54:47;;;;;;;6.50;2.88;;;;;;;;;;5101388;27;20042;-72
2022/06/15 01:57:15;;;;;;;5.50;2.50;;;;;;;;;;5098144;28;20136;-73
2022/06/15 01:59:49;;;;;;;5.25;2.45;;;;;;;;;;5096110;27;20039;-72
2022/06/15 02:02:25;;;;;;;4.63;2.60;;;;;;;;;;5097755;27;20495;-69
2022/06/15 02:05:06;;;;;;;6.68;2.50;;;;;;;;;;5098775;27;20528;-72
2022/06/15 02:07:45;;;;;;;5.57;2.58;;;;;;;;;;5103670;27;20453;-74
2022/06/15 02:10:36;;;;;;;4.25;2.42;;;;;;;;;;5100647;27;20395;-74
2022/06/15 02:13:19;;;;;;;4.30;2.42;;;;;;;;;;5102084;27;20035;-72
2022/06/15 02:15:48;;;;;;;;;;;;;;;;;;5102099;27;20024;-74
2022/06/15 02:18:17;;;;;;;4.13;2.67;;;;;;;;;;5096700;28;20006;-72
2022/06/15 02:20:50;;;;;;;3.85;2.67;;;;;;;;;;5104991;27;20479;-69
2022/06/15 02:23:18;;;;;;;4.00;2.53;;;;;;;;;;5101788;27;20035;-74
2022/06/15 02:25:47;;;;;;;4.85;2.60;;;;;;;;;;5095217;28;20038;-71
2022/06/15 02:28:14;;;;;;;4.95;2.85;;;;;;;;;;5098689;28;20107;-74
2022/06/15 02:30:41;;;;;;;4.90;2.75;;;;;;;;;;5099627;27;20034;-71
2022/06/15 02:33:23;;;;;;;3.80;2.58;;;;;;;;;;5099776;28;20148;-69
2022/06/15 02:35:48;;;;;;;4.82;2.53;;;;;;;;;;5097015;28;20130;-69
2022/06/15 02:38:14;;;;;;;5.05;2.70;;;;;;;;;;5102889;27;20157;-73
2022/06/15 02:40:39;;;;;;;3.80;2.60;;;;;;;;;;5099802;27;20034;-69
2022/06/15 02:43:05;;;;;;;4.38;2.60;;;;;;;;;;5097823;28;20039;-71
2022/06/15 02:45:38;;;;;;;5.05;2.80;;;;;;;;;;5098113;27;20031;-72
2022/06/15 02:48:06;;;;;;;4.57;2.85;;;;;;;;;;5101783;27;20061;-74
2022/06/15 02:50:38;;;;;;;4.15;2.55;;;;;;;;;;5104696;28;20114;-73
2022/06/15 02:53:16;;;;;;;3.78;2.40;;;;;;;;;;5101445;28;20034;-72
2022/06/15 02:55:42;;;;;;;5.88;3.20;;;;;;;;;;5100104;28;20024;-72
2022/06/15 02:58:13;;;;;;;5.85;2.80;;;;;;;;;;5102960;27;20047;-74
2022/06/15 03:00:39;;;;;;;5.50;2.60;;;;;;;;;;5101879;28;20020;-75
2022/06/15 03:03:05;;;;;;;4.93;2.95;;;;;;;;;;5100964;28;20038;-74
2022/06/15 03:05:30;;;;;;;5.47;2.90;;;;;;;;;;5101106;28;20028;-73
2022/06/15 03:07:56;;;;;;;4.85;2.90;;;;;;;;;;5104042;27;20027;-74
2022/06/15 03:10:21;;;;;;;6.55;2.97;;;;;;;;;;5098854;28;20023;-74
2022/06/15 03:12:47;;;;;;;4.53;2.42;;;;;;;;;;5099798;27;20472;-73
2022/06/15 03:15:14;;;;;;;3.90;2.67;;;;;;;;;;5100430;27;20027;-70
2022/06/15 03:17:39;;;;;;;4.82;3.00;;;;;;;;;;5100577;28;20492;-72
2022/06/15 03:20:06;;;;;;;5.90;2.90;;;;;;;;;;5103423;28;20034;-75
2022/06/15 03:22:35;;;;;;;3.75;2.70;;;;;;;;;;5096465;27;20077;-74
2022/06/15 03:25:01;;;;;;;4.63;2.85;;;;;;;;;;5102588;28;20034;-75
2022/06/15 03:27:26;;;;;;;4.95;2.75;;;;;;;;;;5098303;27;20395;-75
2022/06/15 03:29:53;;;;;;;6.53;3.30;;;;;;;;;;5099994;28;20023;-75
2022/06/15 03:32:18;;;;;;;4.80;2.72;;;;;;;;;;5096887;27;20758;-70
2022/06/15 03:34:44;;;;;;;5.25;3.15;;;;;;;;;;5100487;27;20110;-74
2022/06/15 03:37:10;;;;;;;6.07;2.78;;;;;;;;;;5100214;28;20556;-74
2022/06/15 03:39:35;;;;;;;7.80;2.90;;;;;;;;;;5096219;27;20066;-74
2022/06/15 03:42:14;;;;;;;4.75;2.83;;;;;;;;;;5093947;28;20084;-72
2022/06/15 03:44:40;;;;;;;9.35;3.30;;;;;;;;;;5099957;28;20015;-72
2022/06/15 03:47:08;;;;;;;8.35;2.72;;;;;;;;;;5100271;27;20035;-72
2022/06/15 03:49:33;;;;;;;3.72;2.67;;;;;;;;;;5104497;28;20073;-71
2022/06/15 03:51:59;;;;;;;5.75;2.85;;;;;;;;;;5102328;27;20036;-74
2022/06/15 03:54:24;;;;;;;5.07;2.90;;;;;;;;;;5104344;27;20399;-75
2022/06/15 03:56:50;;;;;;;5.95;2.65;;;;;;;;;;5101071;27;20391;-73
2022/06/15 03:59:15;;;;;;;5.93;3.20;;;;;;;;;;5097628;27;20032;-69
2022/06/15 04:01:41;;;;;;;4.93;2.40;;;;;;;;;;5099432;28;20062;-70
2022/06/15 04:04:09;;;;;;;4.65;2.70;;;;;;;;;;5095834;28;20034;-74
2022/06/15 04:06:35;;;;;;;5.78;2.58;;;;;;;;;;5102470;28;20072;-70
2022/06/15 04:09:00;;;;;;;4.35;2.70;;;;;;;;;;5103565;28;20028;-72
2022/06/15 04:14:10;;;;;;;4.30;2.63;;;;;;;;;;5103020;28;20039;-70
2022/06/15 04:16:36;;;;;;;6.38;2.70;;;;;;;;;;5100577;28;20028;-70
2022/06/15 04:19:04;;;;;;;4.50;2.65;;;;;;;;;;5097048;28;20103;-71
2022/06/15 04:21:30;;;;;;;5.85;2.70;;;;;;;;;;5100014;28;20026;-70
2022/06/15 04:23:55;;;;;;;5.72;2.65;;;;;;;;;;5099721;28;20110;-73
2022/06/15 04:26:20;;;;;;;4.65;2.70;;;;;;;;;;5099631;28;20489;-70
2022/06/15 04:28:46;;;;;;;7.75;3.00;;;;;;;;;;5099413;28;20027;-74
2022/06/15 04:31:11;;;;;;;6.13;2.60;;;;;;;;;;5100167;28;20027;-73
2022/06/15 04:33:37;;;;;;;6.90;3.05;;;;;;;;;;5099518;28;20076;-75
2022/06/15 04:36:02;;;;;;;6.22;3.05;;;;;;;;;;5101917;28;20531;-75
2022/06/15 04:38:28;;;;;;;6.72;2.70;;;;;;;;;;5103931;28;20440;-71
2022/06/15 04:40:53;;;;;;;4.78;2.60;;;;;;;;;;5103665;28;20024;-74
2022/06/15 04:43:19;;;;;;;6.63;2.83;;;;;;;;;;5101406;28;20106;-74
2022/06/15 04:45:44;;;;;;;5.85;2.78;;;;;;;;;;5102828;28;20368;-70
2022/06/15 04:48:10;;;;;;;5.93;3.28;;;;;;;;;;5105911;28;20032;-70
2022/06/15 04:50:36;;;;;;;3.53;2.38;;;;;;;;;;5108138;28;20029;-73
2022/06/15 04:53:02;;;;;;;6.47;3.33;;;;;;;;;;5108104;28;20054;-73
2022/06/15 04:55:29;;;;;;;4.97;2.83;;;;;;;;;;5102720;27;20042;-75
2022/06/15 04:57:54;;;;;;;11.05;3.40;;;;;;;;;;5105353;27;20092;-73
2022/06/15 05:00:23;;;;;;;5.70;3.03;;;;;;;;;;5104292;27;20019;-75
2022/06/15 05:02:48;;;;;;;5.03;2.88;;;;;;;;;;5104535;27;20024;-74
2022/06/15 05:05:14;;;;;;;6.85;3.10;;;;;;;;;;5109615;27;20035;-73
2022/06/15 05:07:41;;;;;;;4.15;2.80;;;;;;;;;;5100968;28;20567;-72
2022/06/15 05:10:11;;;;;;;6.85;2.80;;;;;;;;;;5108098;28;20028;-75
2022/06/15 05:12:36;;;;;;;4.40;2.90;;;;;;;;;;5104755;28;20043;-70
2022/06/15 05:15:02;;;;;;;5.05;3.00;;;;;;;;;;5103606;27;20043;-75
2022/06/15 05:17:27;;;;;;;7.53;3.40;;;;;;;;;;5105410;28;20051;-73
2022/06/15 05:19:52;;;;;;;5.85;3.22;;;;;;;;;;5109090;28;20375;-70
2022/06/15 05:22:18;;;;;;;6.88;3.22;;;;;;;;;;5109480;28;20084;-74
2022/06/15 05:24:44;;;;;;;7.43;3.67;;;;;;;;;;5109629;28;20031;-75
2022/06/15 05:27:09;;;;;;;5.85;3.30;;;;;;;;;;5103928;27;20034;-70
2022/06/15 05:29:37;;;;;;;5.07;3.40;;;;;;;;;;5108368;27;20027;-72
2022/06/15 05:32:04;;;;;;;5.75;3.35;;;;;;;;;;5105962;27;20520;-75
2022/06/15 05:34:29;;;;;;;5.47;3.70;;;;;;;;;;5106255;28;20019;-69
2022/06/15 05:36:55;;;;;;;10.85;3.92;;;;;;;;;;5107366;27;20040;-73
2022/06/15 05:39:20;;;;;;;5.03;3.25;;;;;;;;;;5103235;28;20608;-75
2022/06/15 05:41:49;;;;;;;5.82;3.00;;;;;;;;;;5108020;27;20019;-70
2022/06/15 05:44:40;;;;;;;5.30;3.40;;;;;;;;;;5103971;27;20055;-73
2022/06/15 05:47:05;;;;;;;6.28;2.90;;;;;;;;;;5101889;27;20511;-73
2022/06/15 05:49:30;;;;;;;6.32;3.30;;;;;;;;;;5101505;28;20019;-72
2022/06/15 05:51:56;;;;;;;4.95;3.30;;;;;;;;;;5106623;27;20036;-74
2022/06/15 05:54:21;;;;;;;6.57;3.53;;;;;;;;;;5102681;27;20031;-73
2022/06/15 05:56:47;;;;;;;8.90;3.90;;;;;;;;;;5109230;27;20399;-74
2022/06/15 05:59:12;;;;;;;7.60;3.72;;;;;;;;;;5099672;28;20028;-74
2022/06/15 06:01:38;;;;;;;7.85;3.88;;;;;;;;;;5101002;27;20023;-73
2022/06/15 06:04:05;;;;;;;6.95;3.65;;;;;;;;;;5102117;27;20031;-75
2022/06/15 06:06:31;;;;;;;7.63;3.45;;;;;;;;;;5097734;28;20046;-73
2022/06/15 06:08:58;;;;;;;6.65;3.80;;;;;;;;;;5103529;28;20027;-72
2022/06/15 06:11:24;;;;;;;7.13;3.80;;;;;;;;;;5110691;28;20043;-73
2022/06/15 06:13:49;;;;;;;7.15;3.92;;;;;;;;;;5111028;28;20058;-75
2022/06/15 06:16:15;;;;;;;8.02;4.28;;;;;;;;;;5106974;28;20048;-75
2022/06/15 06:18:41;;;;;;;5.90;3.38;;;;;;;;;;5110931;28;20019;-75
2022/06/15 06:21:07;;;;;;;8.10;4.03;;;;;;;;;;5101379;28;20032;-75
2022/06/15 06:23:33;;;;;;;7.35;3.70;;;;;;;;;;5111977;28;20080;-72
2022/06/15 06:25:59;;;;;;;9.00;4.10;;;;;;;;;;5106650;28;20487;-75
2022/06/15 06:28:32;;;;;;;6.50;3.95;;;;;;;;;;5105310;28;20051;-75
2022/06/15 06:30:59;;;;;;;9.35;4.10;;;;;;;;;;5111660;27;20031;-75
2022/06/15 06:33:27;;;;;;;5.85;3.33;;;;;;;;;;5105773;27;20071;-72
2022/06/15 06:35:54;;;;;;;5.43;3.90;;;;;;;;;;5108192;28;20035;-73
2022/06/15 06:38:21;;;;;;;7.45;4.15;;;;;;;;;;5099032;28;20020;-75
2022/06/15 06:40:48;;;;;;;8.13;3.97;;;;;;;;;;5105553;27;20031;-75
2022/06/15 06:43:13;;;;;;;5.38;3.67;;;;;;;;;;5108104;28;20028;-74
2022/06/15 06:45:38;;;;;;;7.35;3.90;;;;;;;;;;5108448;28;20042;-76
2022/06/15 06:48:04;;;;;;;6.93;4.10;;;;;;;;;;5102918;27;20019;-72
2022/06/15 06:50:29;;;;;;;9.45;3.55;;;;;;;;;;5110816;27;20059;-73
2022/06/15 06:52:55;;;;;;;6.95;3.53;;;;;;;;;;5107137;28;20027;-74
2022/06/15 06:55:22;;;;;;;6.72;4.07;;;;;;;;;;5099996;28;20035;-71
2022/06/15 06:57:52;;;;;;;10.52;3.80;;;;;;;;;;5112557;28;20021;-75
2022/06/15 07:00:18;;;;;;;7.57;3.70;;;;;;;;;;5106796;28;20028;-72
2022/06/15 07:02:43;;;;;;;5.93;3.35;;;;;;;;;;5107377;28;20059;-75
2022/06/15 07:05:09;;;;;;;10.38;3.65;;;;;;;;;;5100136;28;20034;-74
2022/06/15 07:07:34;;;;;;;7.70;3.53;;;;;;;;;;5099806;28;20028;-75
2022/06/15 07:09:59;;;;;;;6.55;3.75;;;;;;;;;;5101748;28;20559;-74
2022/06/15 07:12:25;;;;;;;5.47;3.60;;;;;;;;;;5103303;28;20031;-75
2022/06/15 07:14:51;;;;;;;7.38;3.72;;;;;;;;;;5096613;28;20020;-75
2022/06/15 07:17:17;;;;;;;8.13;3.30;;;;;;;;;;5093843;28;20050;-75
2022/06/15 07:19:42;;;;;;;5.97;3.10;;;;;;;;;;5105070;28;20035;-74
2022/06/15 07:22:08;;;;;;;7.15;3.30;;;;;;;;;;5110981;28;20031;-73
2022/06/15 07:24:33;;;;;;;6.20;3.10;;;;;;;;;;5105233;28;20535;-75
2022/06/15 07:26:58;;;;;;;5.18;2.97;;;;;;;;;;5108035;28;20510;-75
2022/06/15 07:29:24;;;;;;;6.22;3.20;;;;;;;;;;5107709;28;20087;-75
2022/06/15 07:31:55;;;;;;;5.93;2.88;;;;;;;;;;5110034;28;20027;-74
2022/06/15 07:34:21;;;;;;;6.88;2.90;;;;;;;;;;5107301;28;20494;-76
2022/06/15 07:36:47;;;;;;;6.18;3.40;;;;;;;;;;5096063;28;20044;-74
2022/06/15 07:39:19;;;;;;;6.55;3.08;;;;;;;;;;5106638;28;20036;-75
2022/06/15 07:41:45;;;;;;;4.57;2.92;;;;;;;;;;5107795;28;20471;-70
2022/06/15 07:44:11;;;;;;;4.72;2.70;;;;;;;;;;5111355;28;20031;-70
2022/06/15 07:46:37;;;;;;;5.07;2.85;;;;;;;;;;5110340;28;20031;-75
2022/06/15 07:51:53;;;;;;;5.90;2.85;;;;;;;;;;5107925;28;20525;-75
2022/06/15 07:54:19;;;;;;;7.38;2.50;;;;;;;;;;5107290;28;20437;-75
2022/06/15 07:56:45;;;;;;;5.75;2.55;;;;;;;;;;5109692;28;20028;-73
2022/06/15 07:59:12;;;;;;;4.72;2.10;;;;;;;;;;5111309;28;20179;-76
2022/06/15 08:01:38;;;;;;;5.60;2.50;;;;;;;;;;5107982;28;20094;-75
2022/06/15 08:04:04;;;;;;;5.47;2.58;;;;;;;;;;5106937;28;20027;-76
2022/06/15 08:06:30;;;;;;;5.65;2.20;;;;;;;;;;5104197;28;20015;-76
2022/06/15 08:08:56;;;;;;;5.55;2.28;;;;;;;;;;5110718;28;20032;-70
2022/06/15 08:11:22;;;;;;;3.75;2.05;;;;;;;;;;5107564;28;20024;-70
2022/06/15 08:13:48;;;;;;;4.65;1.92;;;;;;;;;;5106312;28;20098;-70
2022/06/15 08:16:16;;;;;;;4.38;1.90;;;;;;;;;;5108469;28;20020;-73
2022/06/15 08:18:46;;;;;;;4.70;1.70;;;;;;;;;;5099849;28;20042;-76
2022/06/15 08:21:17;;;;;;;5.28;1.70;;;;;;;;;;5103966;28;20039;-73
2022/06/15 08:23:46;;;;;;;3.22;1.70;;;;;;;;;;5104306;28;20043;-76
2022/06/15 08:26:16;;;;;;;8.90;2.53;;;;;;;;;;5101128;28;20023;-73
2022/06/15 08:28:46;;;;;;;4.97;2.30;;;;;;;;;;5106946;28;20471;-76
2022/06/15 08:31:13;;;;;;;4.70;1.98;;;;;;;;;;5105679;28;20479;-76
2022/06/15 08:33:39;;;;;;;6.60;2.30;;;;;;;;;;5104225;28;20107;-74
2022/06/15 08:36:05;;;;;;;4.07;2.10;;;;;;;;;;5064718;28;1093969;-70
2022/06/15 08:38:30;;;;;;;5.63;2.28;;;;;;;;;;5108930;28;20027;-76
2022/06/15 08:41:10;;;;;;;6.22;2.05;;;;;;;;;;5099295;28;20032;-76
2022/06/15 08:44:12;;;;;;;4.43;1.58;;;;;;;;;;5105085;28;20024;-76
2022/06/15 08:47:15;;;;;;;4.30;1.97;;;;;;;;;;5100316;28;20118;-76
2022/06/15 08:50:22;;;;;;;3.92;1.83;;;;;;;;;;5106399;28;20251;-73
2022/06/15 08:53:17;;;;;;;4.93;1.90;;;;;;;;;;5022969;28;20033;-71
2022/06/15 08:55:49;;;;;;;3.97;1.70;;;;;;;;;;5100466;28;20067;-76
2022/06/15 08:58:21;;;;;;;6.57;2.00;;;;;;;;;;5108103;28;20084;-76
2022/06/15 09:00:48;;;;;;;6.78;2.25;;;;;;;;;;5108114;28;20022;-72
2022/06/15 09:03:32;;;;;;;5.00;1.80;;;;;;;;;;5108361;28;20111;-72
2022/06/15 09:06:22;;;;;;;3.70;1.55;;;;;;;;;;5106732;28;20016;-76
2022/06/15 09:09:06;;;;;;;5.88;1.58;;;;;;;;;;5108678;28;20039;-74
2022/06/15 09:11:44;;;;;;;6.20;1.80;;;;;;;;;;5109208;28;20068;-74
2022/06/15 09:14:24;;;;;;;3.92;1.65;;;;;;;;;;5110104;28;20019;-73
2022/06/15 09:17:01;;;;;;;4.93;1.65;;;;;;;;;;5105203;28;20027;-71
2022/06/15 09:19:31;;;;;;;4.57;1.70;;;;;;;;;;5103680;28;20027;-76
2022/06/15 09:22:03;;;;;;;5.55;2.30;;;;;;;;;;5106931;28;20034;-73
2022/06/15 09:24:49;;;;;;;4.80;1.65;;;;;;;;;;5111038;28;20028;-70
2022/06/15 09:27:21;;;;;;;4.95;1.73;;;;;;;;;;5097438;28;20029;-71
2022/06/15 09:29:58;;;;;;;4.22;1.90;;;;;;;;;;5109895;28;20391;-75
2022/06/15 09:32:30;;;;;;;5.32;2.00;;;;;;;;;;5104253;28;20106;-75
2022/06/15 09:35:03;;;;;;;4.45;1.60;;;;;;;;;;5107504;28;20107;-70
2022/06/15 09:37:33;;;;;;;4.97;1.98;;;;;;;;;;5114057;28;20031;-76
2022/06/15 09:39:59;;;;;;;4.15;1.83;;;;;;;;;;5110638;28;20035;-76
2022/06/15 09:42:49;;;;;;;4.25;1.80;;;;;;;;;;5111881;27;20481;-74
2022/06/15 09:45:35;;;;;;;10.00;1.90;;;;;;;;;;5113732;28;20110;-76
2022/06/15 09:48:22;;;;;;;4.28;1.80;;;;;;;;;;5111678;28;20032;-71
2022/06/15 09:51:14;;;;;;;6.43;2.05;;;;;;;;;;5106098;28;20020;-71
2022/06/15 09:53:45;;;;;;;5.82;1.83;;;;;;;;;;5108460;28;20047;-71
2022/06/15 09:56:13;;;;;;;5.53;2.20;;;;;;;;;;5107355;28;20043;-73
2022/06/15 09:59:03;;;;;;;5.38;1.80;;;;;;;;;;5108708;28;20027;-71
2022/06/15 10:01:33;;;;;;;3.42;1.80;;;;;;;;;;5108322;28;20162;-76
2022/06/15 10:04:01;;;;;;;3.15;1.77;;;;;;;;;;5101667;28;20472;-76
2022/06/15 10:06:32;;;;;;;4.95;2.05;;;;;;;;;;5107786;28;20051;-71
2022/06/15 10:09:00;;;;;;;3.58;1.73;;;;;;;;;;5109326;28;20034;-76
2022/06/15 10:11:48;;;;;;;4.88;1.88;;;;;;;;;;5112060;28;20027;-76
2022/06/15 10:14:18;;;;;;;6.00;1.90;;;;;;;;;;5111576;28;20038;-76
2022/06/15 10:16:51;;;;;;;5.68;2.08;;;;;;;;;;5102262;27;20495;-74
2022/06/15 10:19:17;;;;;;;3.85;1.73;;;;;;;;;;5111704;28;20035;-71
2022/06/15 10:21:42;;;;;;;4.10;1.75;;;;;;;;;;5110492;28;20407;-76
2022/06/15 10:24:13;;;;;;;5.53;1.75;;;;;;;;;;5110493;28;20038;-76
2022/06/15 10:26:42;;;;;;;4.43;2.10;;;;;;;;;;5104448;28;20036;-76
2022/06/15 10:29:18;;;;;;;5.55;1.88;;;;;;;;;;5107292;27;20032;-76
2022/06/15 10:32:08;;;;;;;4.47;1.73;;;;;;;;;;5110615;28;20069;-71
2022/06/15 10:34:40;;;;;;;4.70;1.88;;;;;;;;;;5102381;28;20477;-73
2022/06/15 10:37:15;;;;;;;3.40;1.77;;;;;;;;;;5107825;28;20031;-71
2022/06/15 10:39:48;;;;;;;3.95;1.60;;;;;;;;;;5109218;28;20042;-74
2022/06/15 10:42:29;;;;;;;3.28;1.80;;;;;;;;;;5110937;28;20031;-76
2022/06/15 10:44:58;;;;;;;4.65;1.98;;;;;;;;;;5110015;28;20015;-75
2022/06/15 10:47:28;;;;;;;4.88;1.85;;;;;;;;;;5110579;28;20395;-73
2022/06/15 10:50:05;;;;;;;4.97;1.95;;;;;;;;;;5112476;28;20030;-74
2022/06/15 10:52:37;;;;;;;4.93;1.90;;;;;;;;;;5099751;28;20038;-76
2022/06/15 11:04:20;;;;;;;4.75;1.80;;;;;;;;;;5107184;28;20039;-76
2022/06/15 11:06:53;;;;;;;;;;;;;;;;;;5106468;28;20031;-70
2022/06/15 11:09:38;;;;;;;3.25;1.80;;;;;;;;;;5107836;28;19912;-76
2022/06/15 11:12:33;;;;;;;6.88;1.73;;;;;;;;;;5105531;28;20678;-75
2022/06/15 11:15:06;;;;;;;4.68;2.00;;;;;;;;;;5102848;28;20400;-71
2022/06/15 11:20:42;;;;;;;6.13;1.92;;;;;;;;;;5103808;28;20069;-70
2022/06/15 11:23:27;;;;;;;3.00;1.63;;;;;;;;;;5107826;28;20045;-76
2022/06/15 11:25:59;;;;;;;2.85;1.80;;;;;;;;;;5104490;27;20022;-74
2022/06/15 11:28:35;;;;;;;3.38;1.70;;;;;;;;;;5100486;28;20031;-76
2022/06/15 11:31:09;;;;;;;5.70;2.05;;;;;;;;;;5108656;28;20024;-76
2022/06/15 11:34:14;;;;;;;5.18;2.90;;;;;;;;;;5102733;28;20106;-74
2022/06/15 11:36:54;;;;;;;4.85;1.80;;;;;;;;;;5099327;28;20431;-75
2022/06/15 11:39:36;;;;;;;4.30;1.60;;;;;;;;;;5112119;28;20051;-71
2022/06/15 11:42:03;;;;;;;3.83;1.77;;;;;;;;;;5106323;28;20068;-72
2022/06/15 11:44:38;;;;;;;4.80;1.63;;;;;;;;;;5104561;28;20027;-74
2022/06/15 11:47:20;;;;;;;5.07;2.15;;;;;;;;;;5111370;28;20037;-74
2022/06/15 11:50:07;;;;;;;3.88;1.50;;;;;;;;;;5105891;28;20023;-73
2022/06/15 11:53:12;;;;;;;5.00;1.60;;;;;;;;;;5104145;27;20016;-74
2022/06/15 11:55:44;;;;;;;3.28;1.80;;;;;;;;;;5105751;28;20028;-73
2022/06/15 11:58:30;;;;;;;3.90;1.70;;;;;;;;;;5108016;28;20024;-74
2022/06/15 12:01:19;;;;;;;4.28;1.67;;;;;;;;;;5109519;28;20058;-71
2022/06/15 12:04:09;;;;;;;5.72;1.80;;;;;;;;;;5108289;28;20032;-75
2022/06/15 12:07:12;;;;;;;2.60;1.60;;;;;;;;;;5105027;28;20102;-73
2022/06/15 12:09:43;;;;;;;4.43;1.70;;;;;;;;;;5105114;28;20019;-71
2022/06/15 12:12:37;;;;;;;5.72;1.88;;;;;;;;;;5100022;27;20384;-75
2022/06/15 12:15:06;;;;;;;3.75;1.95;;;;;;;;;;5102843;28;20024;-72
2022/06/15 12:17:42;;;;;;;3.47;1.65;;;;;;;;;;5103183;27;20020;-75
2022/06/15 12:20:52;;;;;;;4.57;1.80;;;;;;;;;;5099754;28;20028;-75
2022/06/15 12:23:40;;;;;;;3.38;1.75;;;;;;;;;;5098190;28;20020;-72
2022/06/15 12:27:01;;;;;;;4.05;1.75;;;;;;;;;;5100746;28;20027;-76
2022/06/15 12:29:51;;;;;;;3.30;1.70;;;;;;;;;;5108753;28;20045;-73
2022/06/15 12:32:42;;;;;;;3.95;1.98;;;;;;;;;;5095998;28;20043;-73
2022/06/15 12:35:32;;;;;;;4.05;1.63;;;;;;;;;;5094659;28;20171;-74
2022/06/15 12:38:05;;;;;;;4.43;1.80;;;;;;;;;;5099198;28;20032;-74
2022/06/15 12:40:39;;;;;;;3.53;1.80;;;;;;;;;;5100317;28;20024;-75
2022/06/15 12:43:13;;;;;;;4.95;1.85;;;;;;;;;;5100687;28;20032;-73
2022/06/15 12:45:45;;;;;;;2.85;1.48;;;;;;;;;;5103008;28;20053;-74
2022/06/15 12:48:33;;;;;;;4.53;1.83;;;;;;;;;;5093629;28;20081;-76
2022/06/15 12:51:10;;;;;;;3.88;1.50;;;;;;;;;;5101438;28;20039;-76
2022/06/15 12:54:04;;;;;;;4.22;1.80;;;;;;;;;;5097565;28;20028;-72
2022/06/15 12:56:57;;;;;;;3.03;1.40;;;;;;;;;;5104007;28;20379;-76
2022/06/15 12:59:43;;;;;;;2.78;1.40;;;;;;;;;;5094213;28;20039;-74
2022/06/15 13:02:22;;;;;;;4.47;1.40;;;;;;;;;;5098410;28;20035;-75
2022/06/15 13:05:31;;;;;;;3.50;1.40;;;;;;;;;;5094942;28;20129;-72
2022/06/15 13:08:25;;;;;;;4.05;1.60;;;;;;;;;;5017648;28;20033;-74
2022/06/15 13:10:53;;;;;;;3.45;1.50;;;;;;;;;;5036179;28;20115;-73
2022/06/15 13:13:34;;;;;;;3.10;1.73;;;;;;;;;;5085140;28;20038;-72
2022/06/15 13:16:07;;;;;;;5.53;2.10;;;;;;;;;;5105559;28;20592;-76
2022/06/15 13:18:49;;;;;;;4.63;1.98;;;;;;;;;;5100828;28;20806;-75
2022/06/15 13:21:29;;;;;;;3.83;1.65;;;;;;;;;;5102080;28;20052;-74
2022/06/15 13:24:00;;;;;;;5.28;1.50;;;;;;;;;;5106658;27;20541;-74
2022/06/15 13:26:54;;;;;;;3.35;1.67;;;;;;;;;;5101451;28;20144;-74
2022/06/15 13:29:31;;;;;;;2.85;1.50;;;;;;;;;;5102793;27;20034;-75
2022/06/15 13:32:03;;;;;;;4.10;1.60;;;;;;;;;;5103423;28;20023;-75
2022/06/15 13:34:34;;;;;;;3.33;1.50;;;;;;;;;;5095051;27;20024;-74
2022/06/15 13:37:27;;;;;;;3.38;1.30;;;;;;;;;;5095978;27;20505;-73
2022/06/15 13:39:56;;;;;;;4.38;1.48;;;;;;;;;;5101103;28;20112;-74
2022/06/15 13:42:27;;;;;;;3.25;1.40;;;;;;;;;;5092832;28;20041;-74
2022/06/15 13:44:58;;;;;;;6.20;1.55;;;;;;;;;;5102955;28;20047;-74
2022/06/15 13:47:27;;;;;;;2.33;1.30;;;;;;;;;;5101702;28;20517;-74
2022/06/15 13:49:59;;;;;;;3.50;1.40;;;;;;;;;;5098809;28;20051;-71
2022/06/15 13:52:29;;;;;;;2.90;1.47;;;;;;;;;;5108105;28;20031;-73
2022/06/15 13:55:35;;;;;;;3.80;1.48;;;;;;;;;;5103374;27;20032;-72
2022/06/15 13:58:09;;;;;;;3.90;1.48;;;;;;;;;;5101155;28;20200;-72
2022/06/15 14:01:09;;;;;;;2.72;1.40;;;;;;;;;;5104167;27;20491;-72
2022/06/15 14:04:08;;;;;;;2.65;1.40;;;;;;;;;;5092651;27;20543;-74
2022/06/15 14:06:42;;;;;;;3.08;1.45;;;;;;;;;;5101563;28;20024;-74
2022/06/15 14:09:32;;;;;;;2.83;1.40;;;;;;;;;;5103391;27;20032;-74
2022/06/15 14:12:19;;;;;;;4.53;1.50;;;;;;;;;;5100052;27;20023;-73
2022/06/15 14:15:14;;;;;;;2.75;1.40;;;;;;;;;;5103357;27;20566;-74
2022/06/15 14:18:13;;;;;;;3.95;1.50;;;;;;;;;;5056248;28;20035;-71
2022/06/15 14:20:45;;;;;;;3.30;1.50;;;;;;;;;;5098484;27;20429;-74
2022/06/15 14:23:13;;;;;;;3.90;1.60;;;;;;;;;;5103901;28;20034;-72
2022/06/15 14:25:46;;;;;;;3.15;1.65;;;;;;;;;;5094319;27;20093;-73
2022/06/15 14:28:14;;;;;;;3.20;1.50;;;;;;;;;;5098372;28;20485;-73
2022/06/15 14:30:43;;;;;;;2.95;1.30;;;;;;;;;;5099761;28;20527;-73
2022/06/15 14:33:21;;;;;;;2.88;1.40;;;;;;;;;;5102965;28;20035;-74
2022/06/15 14:36:01;;;;;;;3.33;1.38;;;;;;;;;;5102451;28;20087;-74
2022/06/15 14:38:29;;;;;;;4.47;1.40;;;;;;;;;;5102944;28;20116;-74
2022/06/15 14:41:27;;;;;;;3.15;1.42;;;;;;;;;;5099934;28;20101;-74
2022/06/15 14:43:53;;;;;;;5.65;1.50;;;;;;;;;;5101446;27;20039;-73
2022/06/15 14:46:22;;;;;;;2.28;1.30;;;;;;;;;;5096963;27;20116;-73
2022/06/15 14:48:50;;;;;;;3.58;1.45;;;;;;;;;;5099809;28;20035;-74
2022/06/15 14:51:20;;;;;;;2.75;1.30;;;;;;;;;;5096794;28;20027;-73
2022/06/15 14:53:52;;;;;;;2.25;1.50;;;;;;;;;;5102674;28;20379;-73
2022/06/15 14:56:18;;;;;;;2.35;1.50;;;;;;;;;;5104326;28;20027;-73
2022/06/15 14:58:59;;;;;;;3.47;1.45;;;;;;;;;;5102354;27;20053;-75
2022/06/15 15:01:24;;;;;;;3.63;1.65;;;;;;;;;;5096032;27;20035;-73
2022/06/15 15:03:49;;;;;;;3.30;1.30;;;;;;;;;;5102077;28;20032;-74
2022/06/15 15:06:18;;;;;;;2.42;1.40;;;;;;;;;;5102754;28;20024;-73
2022/06/15 15:08:48;;;;;;;3.58;2.05;;;;;;;;;;5096955;27;20050;-73
2022/06/15 15:11:34;;;;;;;2.55;1.48;;;;;;;;;;5100496;28;20028;-73
2022/06/15 15:14:05;;;;;;;4.07;1.50;;;;;;;;;;5092066;28;20031;-73
2022/06/15 15:16:39;;;;;;;3.28;1.30;;;;;;;;;;5088672;28;20144;-72
2022/06/15 15:19:09;;;;;;;2.08;1.30;;;;;;;;;;5091375;28;20902;-73
2022/06/15 15:21:45;;;;;;;2.47;1.20;;;;;;;;;;5097699;27;20028;-74
2022/06/15 15:24:17;;;;;;;1.90;1.17;;;;;;;;;;5090313;27;20119;-72
2022/06/15 15:26:59;;;;;;;2.03;1.30;;;;;;;;;;5088874;27;20100;-73
2022/06/15 15:35:31;;;;;;;3.25;1.55;;;;;;;;;;5090431;27;20135;-74
2022/06/15 15:38:16;;;;;;;2.42;1.40;;;;;;;;;;5088400;27;20138;-74
2022/06/15 15:40:54;;;;;;;2.60;1.50;;;;;;;;;;5093277;28;20518;-74
2022/06/15 15:43:21;;;;;;;3.00;1.30;;;;;;;;;;5089789;27;20417;-72